sensor_id;sensor_type;location;lat;lon;timestamp;pressure;altitude;pressure_sealevel;temperature;humidity
73267;BME280;61495;53.400;7.608;2023-07-13T00:00:27;101162.91;;;15.95;74.80
73267;BME280;61495;53.400;7.608;2023-07-13T00:02:53;101163.72;;;15.96;74.35
73267;BME280;61495;53.400;7.608;2023-07-13T00:05:21;101158.56;;;15.94;74.08
73267;BME280;61495;53.400;7.608;2023-07-13T00:07:47;101160.66;;;15.92;75.41
73267;BME280;61495;53.400;7.608;2023-07-13T00:10:13;101159.63;;;15.93;75.59
73267;BME280;61495;53.400;7.608;2023-07-13T00:12:39;101165.50;;;15.90;74.91
73267;BME280;61495;53.400;7.608;2023-07-13T00:15:09;101169.25;;;15.89;74.74
73267;BME280;61495;53.400;7.608;2023-07-13T00:17:36;101164.31;;;15.86;73.71
73267;BME280;61495;53.400;7.608;2023-07-13T00:20:04;101167.25;;;15.85;74.82
73267;BME280;61495;53.400;7.608;2023-07-13T00:22:30;101164.75;;;15.83;75.46
73267;BME280;61495;53.400;7.608;2023-07-13T00:24:55;101168.53;;;15.82;75.17
73267;BME280;61495;53.400;7.608;2023-07-13T00:27:21;101168.75;;;15.81;76.18
73267;BME280;61495;53.400;7.608;2023-07-13T00:29:47;101163.59;;;15.79;75.52
73267;BME280;61495;53.400;7.608;2023-07-13T00:32:13;101163.81;;;15.78;76.13
73267;BME280;61495;53.400;7.608;2023-07-13T00:34:39;101162.41;;;15.75;75.64
73267;BME280;61495;53.400;7.608;2023-07-13T00:37:05;101160.75;;;15.74;75.36
73267;BME280;61495;53.400;7.608;2023-07-13T00:39:34;101167.00;;;15.75;75.44
73267;BME280;61495;53.400;7.608;2023-07-13T00:42:01;101155.81;;;15.71;75.71
73267;BME280;61495;53.400;7.608;2023-07-13T00:44:27;101152.53;;;15.69;76.10
73267;BME280;61495;53.400;7.608;2023-07-13T00:46:52;101154.66;;;15.67;75.58
73267;BME280;61495;53.400;7.608;2023-07-13T00:49:20;101145.47;;;15.68;75.83
73267;BME280;61495;53.400;7.608;2023-07-13T00:51:53;101142.19;;;15.66;74.95
73267;BME280;61495;53.400;7.608;2023-07-13T00:54:27;101155.13;;;15.64;75.55
73267;BME280;61495;53.400;7.608;2023-07-13T00:56:59;101160.53;;;15.64;75.12
73267;BME280;61495;53.400;7.608;2023-07-13T00:59:26;101158.88;;;15.63;75.92
73267;BME280;61495;53.400;7.608;2023-07-13T01:01:51;101157.69;;;15.59;75.62
73267;BME280;61495;53.400;7.608;2023-07-13T01:04:17;101157.69;;;15.59;76.00
73267;BME280;61495;53.400;7.608;2023-07-13T01:06:43;101161.66;;;15.56;76.42
73267;BME280;61495;53.400;7.608;2023-07-13T01:09:10;101167.78;;;15.52;76.87
73267;BME280;61495;53.400;7.608;2023-07-13T01:11:36;101170.47;;;15.52;76.50
73267;BME280;61495;53.400;7.608;2023-07-13T01:14:02;101171.53;;;15.51;76.84
73267;BME280;61495;53.400;7.608;2023-07-13T01:16:31;101171.53;;;15.51;76.75
73267;BME280;61495;53.400;7.608;2023-07-13T01:18:57;101166.59;;;15.48;77.65
73267;BME280;61495;53.400;7.608;2023-07-13T01:21:24;101168.66;;;15.46;76.96
73267;BME280;61495;53.400;7.608;2023-07-13T01:23:50;101165.97;;;15.46;77.34
73267;BME280;61495;53.400;7.608;2023-07-13T01:26:16;101170.78;;;15.44;76.63
73267;BME280;61495;53.400;7.608;2023-07-13T01:28:42;101163.16;;;15.41;78.25
73267;BME280;61495;53.400;7.608;2023-07-13T01:31:08;101163.72;;;15.43;76.66
73267;BME280;61495;53.400;7.608;2023-07-13T01:33:35;101159.38;;;15.42;77.94
73267;BME280;61495;53.400;7.608;2023-07-13T01:36:01;101167.47;;;15.42;77.96
73267;BME280;61495;53.400;7.608;2023-07-13T01:38:27;101167.47;;;15.42;77.40
73267;BME280;61495;53.400;7.608;2023-07-13T01:40:52;101163.34;;;15.39;78.62
73267;BME280;61495;53.400;7.608;2023-07-13T01:43:19;101163.16;;;15.41;77.51
73267;BME280;61495;53.400;7.608;2023-07-13T01:45:44;101163.81;;;15.36;79.13
73267;BME280;61495;53.400;7.608;2023-07-13T01:48:11;101166.88;;;15.40;78.42
73267;BME280;61495;53.400;7.608;2023-07-13T01:50:36;101167.47;;;15.42;80.16
73267;BME280;61495;53.400;7.608;2023-07-13T01:53:02;101168.53;;;15.41;78.66
73267;BME280;61495;53.400;7.608;2023-07-13T01:55:28;101162.44;;;15.45;80.32
73267;BME280;61495;53.400;7.608;2023-07-13T01:57:54;101164.88;;;15.35;81.77
73267;BME280;61495;53.400;7.608;2023-07-13T02:00:20;101165.09;;;15.34;81.50
73267;BME280;61495;53.400;7.608;2023-07-13T02:02:45;101173.34;;;15.39;79.98
73267;BME280;61495;53.400;7.608;2023-07-13T02:05:12;101172.28;;;15.40;81.14
73267;BME280;61495;53.400;7.608;2023-07-13T02:07:37;101167.34;;;15.37;81.20
73267;BME280;61495;53.400;7.608;2023-07-13T02:10:03;101164.78;;;15.42;81.46
73267;BME280;61495;53.400;7.608;2023-07-13T02:12:29;101173.56;;;15.37;81.83
73267;BME280;61495;53.400;7.608;2023-07-13T02:14:54;101174.53;;;15.43;81.24
73267;BME280;61495;53.400;7.608;2023-07-13T02:17:19;101173.78;;;15.36;82.70
73267;BME280;61495;53.400;7.608;2023-07-13T02:19:45;101176.19;;;15.44;80.71
73267;BME280;61495;53.400;7.608;2023-07-13T02:22:10;101179.47;;;15.46;81.57
73267;BME280;61495;53.400;7.608;2023-07-13T02:24:36;101182.16;;;15.46;82.21
73267;BME280;61495;53.400;7.608;2023-07-13T02:27:03;101184.03;;;15.45;82.03
73267;BME280;61495;53.400;7.608;2023-07-13T02:29:29;101173.34;;;15.39;83.68
73267;BME280;61495;53.400;7.608;2023-07-13T02:31:54;101180.09;;;15.48;82.67
73267;BME280;61495;53.400;7.608;2023-07-13T02:34:20;101175.94;;;15.45;83.30
73267;BME280;61495;53.400;7.608;2023-07-13T02:36:45;101179.47;;;15.46;82.54
73267;BME280;61495;53.400;7.608;2023-07-13T02:39:12;101176.47;;;15.54;82.78
73267;BME280;61495;53.400;7.608;2023-07-13T02:41:37;101177.28;;;15.54;82.76
73267;BME280;61495;53.400;7.608;2023-07-13T02:44:03;101176.47;;;15.54;83.02
73267;BME280;61495;53.400;7.608;2023-07-13T02:46:30;101167.69;;;15.59;82.10
73267;BME280;61495;53.400;7.608;2023-07-13T02:48:55;101171.53;;;15.51;83.62
73267;BME280;61495;53.400;7.608;2023-07-13T02:51:21;101178.00;;;15.50;84.81
73267;BME280;61495;53.400;7.608;2023-07-13T02:53:46;101176.09;;;15.50;83.45
73267;BME280;61495;53.400;7.608;2023-07-13T02:56:12;101177.66;;;15.58;82.45
73267;BME280;61495;53.400;7.608;2023-07-13T02:58:37;101178.50;;;15.59;83.10
73267;BME280;61495;53.400;7.608;2023-07-13T03:01:12;101176.94;;;15.51;84.59
73267;BME280;61495;53.400;7.608;2023-07-13T03:03:38;101180.94;;;15.60;83.73
73267;BME280;61495;53.400;7.608;2023-07-13T03:06:04;101183.16;;;15.51;85.10
73267;BME280;61495;53.400;7.608;2023-07-13T03:08:31;101173.75;;;15.54;83.96
73267;BME280;61495;53.400;7.608;2023-07-13T03:11:14;101178.13;;;15.55;84.37
73267;BME280;61495;53.400;7.608;2023-07-13T03:13:41;101172.84;;;15.60;84.22
73267;BME280;61495;53.400;7.608;2023-07-13T03:16:07;101171.88;;;15.54;84.91
73267;BME280;61495;53.400;7.608;2023-07-13T03:18:35;101170.69;;;15.50;86.53
73267;BME280;61495;53.400;7.608;2023-07-13T03:21:01;101174.00;;;15.52;84.83
73267;BME280;61495;53.400;7.608;2023-07-13T03:23:26;101165.75;;;15.47;85.76
73267;BME280;61495;53.400;7.608;2023-07-13T03:26:22;101178.50;;;15.59;84.72
73267;BME280;61495;53.400;7.608;2023-07-13T03:28:46;101174.81;;;15.53;85.94
73267;BME280;61495;53.400;7.608;2023-07-13T03:31:15;101180.94;;;15.60;85.12
73267;BME280;61495;53.400;7.608;2023-07-13T03:33:41;101181.97;;;15.59;85.01
73267;BME280;61495;53.400;7.608;2023-07-13T03:36:09;101184.94;;;15.57;85.89
73267;BME280;61495;53.400;7.608;2023-07-13T03:38:34;101188.00;;;15.61;84.31
73267;BME280;61495;53.400;7.608;2023-07-13T03:41:00;101186.81;;;15.57;86.88
73267;BME280;61495;53.400;7.608;2023-07-13T03:43:26;101183.53;;;15.55;86.28
73267;BME280;61495;53.400;7.608;2023-07-13T03:45:51;101183.97;;;15.52;87.99
73267;BME280;61495;53.400;7.608;2023-07-13T03:48:17;101185.16;;;15.56;86.12
73267;BME280;61495;53.400;7.608;2023-07-13T03:50:42;101187.97;;;15.49;88.16
73267;BME280;61495;53.400;7.608;2023-07-13T03:53:08;101187.63;;;15.57;86.49
73267;BME280;61495;53.400;7.608;2023-07-13T03:55:33;101189.28;;;15.59;86.39
73267;BME280;61495;53.400;7.608;2023-07-13T04:00:46;101190.25;;;15.64;86.54
73267;BME280;61495;53.400;7.608;2023-07-13T04:03:11;101191.28;;;15.63;86.90
73267;BME280;61495;53.400;7.608;2023-07-13T04:05:37;101189.63;;;15.62;87.42
73267;BME280;61495;53.400;7.608;2023-07-13T04:08:05;101197.88;;;15.67;86.36
73267;BME280;61495;53.400;7.608;2023-07-13T04:10:31;101194.56;;;15.65;87.63
73267;BME280;61495;53.400;7.608;2023-07-13T04:12:56;101195.66;;;15.64;87.09
73267;BME280;61495;53.400;7.608;2023-07-13T04:15:21;101196.81;;;15.68;87.35
73267;BME280;61495;53.400;7.608;2023-07-13T04:17:47;101207.75;;;15.73;86.44
73267;BME280;61495;53.400;7.608;2023-07-13T04:20:12;101206.09;;;15.72;86.34
73267;BME280;61495;53.400;7.608;2023-07-13T04:22:37;101208.47;;;15.80;86.51
73267;BME280;61495;53.400;7.608;2023-07-13T04:25:03;101208.47;;;15.80;86.07
73267;BME280;61495;53.400;7.608;2023-07-13T04:27:30;101214.59;;;15.87;86.69
73267;BME280;61495;53.400;7.608;2023-07-13T04:29:55;101217.53;;;15.86;85.97
73267;BME280;61495;53.400;7.608;2023-07-13T04:32:21;101209.19;;;15.87;86.30
73267;BME280;61495;53.400;7.608;2023-07-13T04:34:46;101218.34;;;15.86;85.89
73267;BME280;61495;53.400;7.608;2023-07-13T04:37:11;101221.66;;;15.88;86.75
73267;BME280;61495;53.400;7.608;2023-07-13T04:39:37;101220.13;;;15.92;86.01
73267;BME280;61495;53.400;7.608;2023-07-13T04:42:03;101218.72;;;15.90;86.17
73267;BME280;61495;53.400;7.608;2023-07-13T04:44:28;101224.00;;;15.96;86.15
73267;BME280;61495;53.400;7.608;2023-07-13T04:46:54;101224.94;;;15.90;85.17
73267;BME280;61495;53.400;7.608;2023-07-13T04:49:19;101224.47;;;15.93;86.22
73267;BME280;61495;53.400;7.608;2023-07-13T04:51:45;101231.09;;;15.97;85.87
73267;BME280;61495;53.400;7.608;2023-07-13T04:54:10;101226.47;;;15.98;88.22
73267;BME280;61495;53.400;7.608;2023-07-13T04:56:35;101235.53;;;16.03;86.83
73267;BME280;61495;53.400;7.608;2023-07-13T04:59:01;101225.53;;;16.04;89.27
73267;BME280;61495;53.400;7.608;2023-07-13T05:01:27;101225.91;;;16.07;88.36
73267;BME280;61495;53.400;7.608;2023-07-13T05:03:52;101224.13;;;16.13;87.58
73267;BME280;61495;53.400;7.608;2023-07-13T05:06:17;101231.69;;;16.23;88.53
73267;BME280;61495;53.400;7.608;2023-07-13T05:08:43;101236.16;;;16.40;88.58
73267;BME280;61495;53.400;7.608;2023-07-13T05:11:08;101228.75;;;16.36;88.29
73267;BME280;61495;53.400;7.608;2023-07-13T05:13:34;101238.84;;;16.29;88.95
73267;BME280;61495;53.400;7.608;2023-07-13T05:16:04;101234.28;;;16.52;87.08
73267;BME280;61495;53.400;7.608;2023-07-13T05:18:31;101240.44;;;16.59;87.49
73267;BME280;61495;53.400;7.608;2023-07-13T05:21:06;101238.75;;;16.70;87.55
73267;BME280;61495;53.400;7.608;2023-07-13T05:23:33;101249.09;;;16.85;87.34
73267;BME280;61495;53.400;7.608;2023-07-13T05:26:00;101247.22;;;16.85;88.01
73267;BME280;61495;53.400;7.608;2023-07-13T05:28:26;101243.31;;;16.81;88.67
73267;BME280;61495;53.400;7.608;2023-07-13T05:30:52;101257.94;;;16.80;88.76
73267;BME280;61495;53.400;7.608;2023-07-13T05:33:19;101251.34;;;16.76;88.96
73267;BME280;61495;53.400;7.608;2023-07-13T05:35:45;101248.72;;;16.81;88.67
73267;BME280;61495;53.400;7.608;2023-07-13T05:38:11;101251.91;;;16.90;87.49
73267;BME280;61495;53.400;7.608;2023-07-13T05:40:37;101249.84;;;17.08;87.93
73267;BME280;61495;53.400;7.608;2023-07-13T05:43:02;101253.09;;;17.34;85.81
73267;BME280;61495;53.400;7.608;2023-07-13T05:45:28;101260.59;;;17.55;85.76
73267;BME280;61495;53.400;7.608;2023-07-13T05:47:53;101252.72;;;17.70;85.12
73267;BME280;61495;53.400;7.608;2023-07-13T05:50:19;101258.59;;;17.95;83.98
73267;BME280;61495;53.400;7.608;2023-07-13T05:52:45;101258.84;;;18.10;84.23
73267;BME280;61495;53.400;7.608;2023-07-13T05:55:10;101263.78;;;18.13;83.95
73267;BME280;61495;53.400;7.608;2023-07-13T05:57:35;101271.00;;;18.24;83.09
73267;BME280;61495;53.400;7.608;2023-07-13T06:00:01;101264.44;;;18.20;83.13
73267;BME280;61495;53.400;7.608;2023-07-13T06:02:27;101273.16;;;18.22;83.17
73267;BME280;61495;53.400;7.608;2023-07-13T06:04:53;101274.63;;;18.30;83.99
73267;BME280;61495;53.400;7.608;2023-07-13T06:07:18;101277.09;;;18.31;83.49
73267;BME280;61495;53.400;7.608;2023-07-13T06:09:43;101273.41;;;18.38;83.20
73267;BME280;61495;53.400;7.608;2023-07-13T06:12:09;101277.41;;;18.18;82.57
73267;BME280;61495;53.400;7.608;2023-07-13T06:14:34;101280.97;;;18.19;82.37
73267;BME280;61495;53.400;7.608;2023-07-13T06:17:00;101286.38;;;18.19;82.13
73267;BME280;61495;53.400;7.608;2023-07-13T06:19:25;101285.97;;;18.27;82.27
73267;BME280;61495;53.400;7.608;2023-07-13T06:21:51;101276.97;;;18.55;82.12
73267;BME280;61495;53.400;7.608;2023-07-13T06:24:16;101272.16;;;18.78;81.32
73267;BME280;61495;53.400;7.608;2023-07-13T06:26:41;101279.81;;;19.03;79.97
73267;BME280;61495;53.400;7.608;2023-07-13T06:29:07;101280.56;;;19.20;80.59
73267;BME280;61495;53.400;7.608;2023-07-13T06:31:32;101283.47;;;19.35;79.35
73267;BME280;61495;53.400;7.608;2023-07-13T06:33:58;101283.84;;;19.66;78.77
73267;BME280;61495;53.400;7.608;2023-07-13T06:36:23;101287.81;;;19.80;77.86
73267;BME280;61495;53.400;7.608;2023-07-13T06:38:48;101289.94;;;20.05;77.70
73267;BME280;61495;53.400;7.608;2023-07-13T06:41:14;101291.19;;;20.24;76.55
73267;BME280;61495;53.400;7.608;2023-07-13T06:43:39;101278.91;;;20.48;75.77
73267;BME280;61495;53.400;7.608;2023-07-13T06:46:05;101285.81;;;20.61;75.48
73267;BME280;61495;53.400;7.608;2023-07-13T06:48:30;101289.66;;;20.70;75.08
73267;BME280;61495;53.400;7.608;2023-07-13T06:50:56;101286.50;;;20.88;74.96
73267;BME280;61495;53.400;7.608;2023-07-13T06:53:22;101294.72;;;20.93;74.55
73267;BME280;61495;53.400;7.608;2023-07-13T06:55:48;101287.69;;;21.02;73.90
73267;BME280;61495;53.400;7.608;2023-07-13T06:58:15;101290.22;;;20.67;74.00
73267;BME280;61495;53.400;7.608;2023-07-13T07:00:41;101298.41;;;20.72;74.27
73267;BME280;61495;53.400;7.608;2023-07-13T07:03:06;101300.16;;;20.93;74.26
73267;BME280;61495;53.400;7.608;2023-07-13T07:05:31;101301.31;;;21.07;74.33
73267;BME280;61495;53.400;7.608;2023-07-13T07:07:57;101310.91;;;21.10;72.87
73267;BME280;61495;53.400;7.608;2023-07-13T07:10:22;101307.31;;;21.04;73.23
73267;BME280;61495;53.400;7.608;2023-07-13T07:12:48;101321.81;;;21.10;73.73
73267;BME280;61495;53.400;7.608;2023-07-13T07:15:13;101306.00;;;21.12;73.27
73267;BME280;61495;53.400;7.608;2023-07-13T07:17:39;101307.09;;;21.11;72.36
73267;BME280;61495;53.400;7.608;2023-07-13T07:20:05;101311.19;;;21.13;73.36
73267;BME280;61495;53.400;7.608;2023-07-13T07:22:31;101321.56;;;21.11;71.93
73267;BME280;61495;53.400;7.608;2023-07-13T07:24:57;101316.25;;;21.46;71.93
73267;BME280;61495;53.400;7.608;2023-07-13T07:27:23;101313.31;;;21.58;70.77
73267;BME280;61495;53.400;7.608;2023-07-13T07:29:49;101315.78;;;21.70;70.74
73267;BME280;61495;53.400;7.608;2023-07-13T07:32:14;101313.13;;;21.95;69.86
73267;BME280;61495;53.400;7.608;2023-07-13T07:34:39;101319.16;;;22.07;68.88
73267;BME280;61495;53.400;7.608;2023-07-13T07:37:05;101316.72;;;22.21;68.11
73267;BME280;61495;53.400;7.608;2023-07-13T07:39:31;101319.69;;;22.04;67.74
73267;BME280;61495;53.400;7.608;2023-07-13T07:41:56;101311.22;;;21.95;66.73
73267;BME280;61495;53.400;7.608;2023-07-13T07:44:22;101318.59;;;22.10;66.85
73267;BME280;61495;53.400;7.608;2023-07-13T07:46:47;101324.38;;;22.39;66.80
73267;BME280;61495;53.400;7.608;2023-07-13T07:49:13;101314.25;;;22.69;65.52
73267;BME280;61495;53.400;7.608;2023-07-13T07:54:04;101316.47;;;22.67;64.96
73267;BME280;61495;53.400;7.608;2023-07-13T07:56:30;101321.88;;;22.88;63.30
73267;BME280;61495;53.400;7.608;2023-07-13T07:58:55;101320.50;;;23.00;63.00
73267;BME280;61495;53.400;7.608;2023-07-13T08:01:21;101311.41;;;23.25;63.65
73267;BME280;61495;53.400;7.608;2023-07-13T08:03:47;101321.56;;;23.09;61.04
73267;BME280;61495;53.400;7.608;2023-07-13T08:06:12;101307.78;;;23.35;63.08
73267;BME280;61495;53.400;7.608;2023-07-13T08:08:38;101314.13;;;23.25;62.07
73267;BME280;61495;53.400;7.608;2023-07-13T08:11:06;101317.53;;;23.61;63.15
73267;BME280;61495;53.400;7.608;2023-07-13T08:13:32;101316.13;;;23.68;62.49
73267;BME280;61495;53.400;7.608;2023-07-13T08:15:58;101315.91;;;23.55;61.49
73267;BME280;61495;53.400;7.608;2023-07-13T08:18:24;101309.47;;;23.85;61.72
73267;BME280;61495;53.400;7.608;2023-07-13T08:20:49;101315.28;;;23.78;60.25
73267;BME280;61495;53.400;7.608;2023-07-13T08:23:14;101328.22;;;23.62;59.35
73267;BME280;61495;53.400;7.608;2023-07-13T08:25:42;101322.81;;;23.37;58.77
73267;BME280;61495;53.400;7.608;2023-07-13T08:28:07;101337.59;;;23.41;58.93
73267;BME280;61495;53.400;7.608;2023-07-13T08:30:33;101329.91;;;23.53;60.37
73267;BME280;61495;53.400;7.608;2023-07-13T08:32:58;101325.69;;;23.71;59.62
73267;BME280;61495;53.400;7.608;2023-07-13T08:35:23;101326.31;;;23.58;58.21
73267;BME280;61495;53.400;7.608;2023-07-13T08:37:51;101329.41;;;23.31;58.77
73267;BME280;61495;53.400;7.608;2023-07-13T08:40:17;101323.53;;;22.89;57.58
73267;BME280;61495;53.400;7.608;2023-07-13T08:42:47;101331.69;;;23.04;58.08
73267;BME280;61495;53.400;7.608;2023-07-13T08:45:25;101327.47;;;23.32;58.36
73267;BME280;61495;53.400;7.608;2023-07-13T08:48:02;101315.69;;;23.51;55.73
73267;BME280;61495;53.400;7.608;2023-07-13T08:50:35;101322.47;;;23.59;57.32
73267;BME280;61495;53.400;7.608;2023-07-13T08:53:07;101320.97;;;23.82;58.20
73267;BME280;61495;53.400;7.608;2023-07-13T08:55:36;101319.28;;;23.91;56.60
73267;BME280;61495;53.400;7.608;2023-07-13T08:58:15;101323.34;;;23.49;55.93
73267;BME280;61495;53.400;7.608;2023-07-13T09:00:48;101324.78;;;23.86;57.26
73267;BME280;61495;53.400;7.608;2023-07-13T09:03:24;101324.91;;;23.65;55.71
73267;BME280;61495;53.400;7.608;2023-07-13T09:05:58;101320.88;;;23.97;58.06
73267;BME280;61495;53.400;7.608;2023-07-13T09:09:02;101327.50;;;24.29;56.94
73267;BME280;61495;53.400;7.608;2023-07-13T09:11:44;101326.53;;;24.15;55.32
73267;BME280;61495;53.400;7.608;2023-07-13T09:14:33;101326.81;;;24.09;55.07
73267;BME280;61495;53.400;7.608;2023-07-13T09:17:05;101332.09;;;24.39;57.24
73267;BME280;61495;53.400;7.608;2023-07-13T09:19:34;101327.19;;;24.36;57.54
73267;BME280;61495;53.400;7.608;2023-07-13T09:22:03;101324.94;;;24.72;56.88
73267;BME280;61495;53.400;7.608;2023-07-13T09:24:37;101329.94;;;24.65;54.65
73267;BME280;61495;53.400;7.608;2023-07-13T09:27:33;101318.47;;;24.34;54.62
73267;BME280;61495;53.400;7.608;2023-07-13T09:32:42;101333.03;;;23.81;55.33
73267;BME280;61495;53.400;7.608;2023-07-13T09:35:15;101338.91;;;24.03;54.51
73267;BME280;61495;53.400;7.608;2023-07-13T09:37:43;101338.81;;;23.74;55.47
73267;BME280;61495;53.400;7.608;2023-07-13T09:40:24;101353.78;;;23.92;56.53
73267;BME280;61495;53.400;7.608;2023-07-13T09:42:53;101368.06;;;23.78;56.21
73267;BME280;61495;53.400;7.608;2023-07-13T09:45:30;101365.66;;;23.72;55.95
73267;BME280;61495;53.400;7.608;2023-07-13T09:48:12;101370.97;;;23.38;54.33
73267;BME280;61495;53.400;7.608;2023-07-13T09:50:39;101366.88;;;23.36;54.82
73267;BME280;61495;53.400;7.608;2023-07-13T09:53:11;101363.31;;;23.40;56.34
73267;BME280;61495;53.400;7.608;2023-07-13T09:55:38;101365.97;;;23.65;56.01
73267;BME280;61495;53.400;7.608;2023-07-13T10:00:38;101359.19;;;24.02;56.87
73267;BME280;61495;53.400;7.608;2023-07-13T10:03:16;101365.59;;;23.82;52.88
73267;BME280;61495;53.400;7.608;2023-07-13T10:05:44;101369.53;;;23.66;54.27
73267;BME280;61495;53.400;7.608;2023-07-13T10:10:53;101378.41;;;23.92;56.79
73267;BME280;61495;53.400;7.608;2023-07-13T10:13:32;101373.53;;;23.84;56.28
73267;BME280;61495;53.400;7.608;2023-07-13T10:16:00;101381.88;;;24.12;57.49
73267;BME280;61495;53.400;7.608;2023-07-13T10:18:26;101379.50;;;23.96;57.08
73267;BME280;61495;53.400;7.608;2023-07-13T10:21:10;101381.25;;;23.71;56.95
73267;BME280;61495;53.400;7.608;2023-07-13T10:23:36;101388.44;;;23.57;56.70
73267;BME280;61495;53.400;7.608;2023-07-13T10:26:03;101392.78;;;23.58;57.03
73267;BME280;61495;53.400;7.608;2023-07-13T10:28:37;101402.19;;;23.27;55.28
73267;BME280;61495;53.400;7.608;2023-07-13T10:31:05;101402.19;;;23.17;56.49
73267;BME280;61495;53.400;7.608;2023-07-13T10:33:33;101407.63;;;23.42;56.56
73267;BME280;61495;53.400;7.608;2023-07-13T10:36:23;101413.16;;;23.02;56.14
73267;BME280;61495;53.400;7.608;2023-07-13T10:38:53;101418.94;;;22.80;55.97
73267;BME280;61495;53.400;7.608;2023-07-13T10:41:22;101415.38;;;22.64;55.15
73267;BME280;61495;53.400;7.608;2023-07-13T10:43:55;101416.13;;;22.55;55.60
73267;BME280;61495;53.400;7.608;2023-07-13T10:46:24;101426.78;;;22.41;55.35
73267;BME280;61495;53.400;7.608;2023-07-13T10:48:58;101422.97;;;22.52;55.02
73267;BME280;61495;53.400;7.608;2023-07-13T10:51:25;101428.44;;;22.52;55.93
73267;BME280;61495;53.400;7.608;2023-07-13T10:54:11;101434.44;;;22.49;57.21
73267;BME280;61495;53.400;7.608;2023-07-13T10:56:39;101440.94;;;22.33;56.87
73267;BME280;61495;53.400;7.608;2023-07-13T10:59:20;101438.22;;;22.28;57.98
73267;BME280;61495;53.400;7.608;2023-07-13T11:01:57;101442.63;;;22.44;58.54
73267;BME280;61495;53.400;7.608;2023-07-13T11:04:25;101444.25;;;22.45;58.90
73267;BME280;61495;53.400;7.608;2023-07-13T11:06:56;101450.53;;;22.46;59.59
73267;BME280;61495;53.400;7.608;2023-07-13T11:11:47;101480.31;;;22.42;60.38
73267;BME280;61495;53.400;7.608;2023-07-13T11:14:37;101493.41;;;22.45;60.16
73267;BME280;61495;53.400;7.608;2023-07-13T11:22:47;101515.44;;;21.62;62.48
73267;BME280;61495;53.400;7.608;2023-07-13T11:25:30;101534.41;;;21.46;63.12
73267;BME280;61495;53.400;7.608;2023-07-13T11:30:39;101507.97;;;21.10;64.91
73267;BME280;61495;53.400;7.608;2023-07-13T11:33:28;101485.81;;;21.06;63.23
73267;BME280;61495;53.400;7.608;2023-07-13T11:36:00;101477.84;;;21.00;63.37
73267;BME280;61495;53.400;7.608;2023-07-13T11:38:39;101477.81;;;20.95;63.62
73267;BME280;61495;53.400;7.608;2023-07-13T11:41:19;101482.06;;;20.81;63.07
73267;BME280;61495;53.400;7.608;2023-07-13T11:43:53;101473.53;;;20.72;63.78
73267;BME280;61495;53.400;7.608;2023-07-13T11:46:24;101478.63;;;20.64;64.53
73267;BME280;61495;53.400;7.608;2023-07-13T11:48:51;101489.97;;;20.56;64.29
73267;BME280;61495;53.400;7.608;2023-07-13T11:51:24;101494.19;;;20.41;65.64
73267;BME280;61495;53.400;7.608;2023-07-13T11:53:53;101487.22;;;20.29;65.36
73267;BME280;61495;53.400;7.608;2023-07-13T11:56:19;101484.66;;;20.22;65.88
73267;BME280;61495;53.400;7.608;2023-07-13T11:58:49;101481.41;;;20.20;66.22
73267;BME280;61495;53.400;7.608;2023-07-13T12:01:22;101484.50;;;20.29;66.33
73267;BME280;61495;53.400;7.608;2023-07-13T12:03:49;101482.38;;;20.31;67.37
73267;BME280;61495;53.400;7.608;2023-07-13T12:06:33;101485.25;;;20.24;67.89
73267;BME280;61495;53.400;7.608;2023-07-13T12:09:11;101489.00;;;20.18;67.23
73267;BME280;61495;53.400;7.608;2023-07-13T12:11:43;101485.13;;;20.14;67.34
73267;BME280;61495;53.400;7.608;2023-07-13T12:14:16;101489.75;;;20.14;67.68
73267;BME280;61495;53.400;7.608;2023-07-13T12:16:43;101480.78;;;20.13;68.84
73267;BME280;61495;53.400;7.608;2023-07-13T12:19:27;101474.63;;;20.23;68.94
73267;BME280;61495;53.400;7.608;2023-07-13T12:21:55;101472.72;;;20.23;69.37
73267;BME280;61495;53.400;7.608;2023-07-13T12:24:22;101472.25;;;20.26;70.00
73267;BME280;61495;53.400;7.608;2023-07-13T12:26:59;101483.69;;;20.28;70.60
73267;BME280;61495;53.400;7.608;2023-07-13T12:29:26;101483.75;;;20.33;71.32
73267;BME280;61495;53.400;7.608;2023-07-13T12:31:52;101488.75;;;20.41;72.19
73267;BME280;61495;53.400;7.608;2023-07-13T12:34:20;101490.44;;;20.47;70.94
73267;BME280;61495;53.400;7.608;2023-07-13T12:39:37;101470.47;;;20.64;73.19
73267;BME280;61495;53.400;7.608;2023-07-13T12:42:25;101461.22;;;20.70;72.94
73267;BME280;61495;53.400;7.608;2023-07-13T12:47:20;101457.22;;;20.77;72.44
73267;BME280;61495;53.400;7.608;2023-07-13T12:49:53;101464.88;;;20.80;72.21
73267;BME280;61495;53.400;7.608;2023-07-13T12:52:30;101487.50;;;20.81;73.09
73267;BME280;61495;53.400;7.608;2023-07-13T12:55:09;101492.25;;;20.64;72.67
73267;BME280;61495;53.400;7.608;2023-07-13T12:57:50;101482.78;;;20.71;71.81
73267;BME280;61495;53.400;7.608;2023-07-13T13:03:02;101489.56;;;20.69;73.29
73267;BME280;61495;53.400;7.608;2023-07-13T13:05:30;101488.44;;;20.65;72.99
73267;BME280;61495;53.400;7.608;2023-07-13T13:07:57;101490.84;;;20.61;72.98
73267;BME280;61495;53.400;7.608;2023-07-13T13:10:22;101492.28;;;20.69;73.76
73267;BME280;61495;53.400;7.608;2023-07-13T13:12:50;101494.38;;;20.88;78.26
73267;BME280;61495;53.400;7.608;2023-07-13T13:15:15;101479.28;;;20.76;77.70
73267;BME280;61495;53.400;7.608;2023-07-13T13:17:42;101481.63;;;20.94;78.33
73267;BME280;61495;53.400;7.608;2023-07-13T13:20:15;101487.16;;;21.04;77.29
73267;BME280;61495;53.400;7.608;2023-07-13T13:22:41;101482.09;;;21.13;77.40
73267;BME280;61495;53.400;7.608;2023-07-13T13:25:10;101500.63;;;21.16;77.58
73267;BME280;61495;53.400;7.608;2023-07-13T13:27:36;101495.19;;;21.16;76.75